sensor_id;sensor_type;location;lat;lon;timestamp;pressure;altitude;pressure_sealevel;temperature;humidity
29433;BME280;16405;53.964;13.448;2022-11-04T00:02:11;100098.56;;;7.07;100.00
29433;BME280;16405;53.964;13.448;2022-11-04T00:04:37;100088.25;;;7.04;100.00
29433;BME280;16405;53.964;13.448;2022-11-04T00:07:08;100100.41;;;7.05;100.00
29433;BME280;16405;53.964;13.448;2022-11-04T00:09:56;100103.28;;;6.99;100.00
29433;BME280;16405;53.964;13.448;2022-11-04T00:12:34;100103.47;;;6.94;100.00
29433;BME280;16405;53.964;13.448;2022-11-04T00:15:00;100099.16;;;6.93;100.00
29433;BME280;16405;53.964;13.448;2022-11-04T00:17:49;100111.25;;;6.96;100.00
29433;BME280;16405;53.964;13.448;2022-11-04T00:20:15;100106.22;;;6.91;100.00
29433;BME280;16405;53.964;13.448;2022-11-04T00:22:59;100105.63;;;6.85;100.00
29433;BME280;16405;53.964;13.448;2022-11-04T00:25:51;100108.34;;;6.82;100.00
29433;BME280;16405;53.964;13.448;2022-11-04T00:28:35;100105.97;;;6.75;100.00
29433;BME280;16405;53.964;13.448;2022-11-04T00:31:10;100089.56;;;6.72;100.00
29433;BME280;16405;53.964;13.448;2022-11-04T00:34:09;100092.25;;;6.70;100.00
29433;BME280;16405;53.964;13.448;2022-11-04T00:36:34;100090.38;;;6.74;100.00
29433;BME280;16405;53.964;13.448;2022-11-04T00:39:00;100072.75;;;6.77;100.00
29433;BME280;16405;53.964;13.448;2022-11-04T00:41:36;100084.84;;;6.80;100.00
29433;BME280;16405;53.964;13.448;2022-11-04T00:44:03;100078.81;;;6.78;100.00
29433;BME280;16405;53.964;13.448;2022-11-04T00:46:38;100078.66;;;6.83;100.00
29433;BME280;16405;53.964;13.448;2022-11-04T00:49:04;100073.34;;;6.84;100.00
29433;BME280;16405;53.964;13.448;2022-11-04T00:51:30;100082.81;;;6.87;100.00
29433;BME280;16405;53.964;13.448;2022-11-04T00:53:56;100088.06;;;6.87;100.00
29433;BME280;16405;53.964;13.448;2022-11-04T00:56:32;100077.44;;;6.91;100.00
29433;BME280;16405;53.964;13.448;2022-11-04T00:59:08;100074.81;;;6.91;100.00
29433;BME280;16405;53.964;13.448;2022-11-04T01:01:35;100072.38;;;6.87;100.00
29433;BME280;16405;53.964;13.448;2022-11-04T01:04:01;100065.44;;;6.86;100.00
29433;BME280;16405;53.964;13.448;2022-11-04T01:06:29;100068.78;;;6.89;100.00
29433;BME280;16405;53.964;13.448;2022-11-04T01:09:06;100078.38;;;6.89;100.00
29433;BME280;16405;53.964;13.448;2022-11-04T01:11:33;100084.75;;;6.83;100.00
29433;BME280;16405;53.964;13.448;2022-11-04T01:14:05;100078.78;;;6.80;100.00
29433;BME280;16405;53.964;13.448;2022-11-04T01:16:30;100081.53;;;6.76;100.00
29433;BME280;16405;53.964;13.448;2022-11-04T01:18:56;100088.34;;;6.81;100.00
29433;BME280;16405;53.964;13.448;2022-11-04T01:21:22;100080.53;;;6.79;100.00
29433;BME280;16405;53.964;13.448;2022-11-04T01:23:48;100085.84;;;6.77;100.00
29433;BME280;16405;53.964;13.448;2022-11-04T01:26:26;100089.38;;;6.76;100.00
29433;BME280;16405;53.964;13.448;2022-11-04T01:29:01;100079.75;;;6.77;100.00
29433;BME280;16405;53.964;13.448;2022-11-04T01:31:30;100078.13;;;6.74;100.00
29433;BME280;16405;53.964;13.448;2022-11-04T01:34:05;100068.50;;;6.75;100.00
29433;BME280;16405;53.964;13.448;2022-11-04T01:36:35;100070.06;;;6.79;100.00
29433;BME280;16405;53.964;13.448;2022-11-04T01:39:01;100058.09;;;6.73;100.00
29433;BME280;16405;53.964;13.448;2022-11-04T01:41:34;100046.78;;;6.73;100.00
29433;BME280;16405;53.964;13.448;2022-11-04T01:50:39;100038.72;;;6.57;100.00
29433;BME280;16405;53.964;13.448;2022-11-04T01:53:10;100042.97;;;6.60;100.00
29433;BME280;16405;53.964;13.448;2022-11-04T01:55:54;100025.75;;;6.54;100.00
29433;BME280;16405;53.964;13.448;2022-11-04T01:58:29;100030.94;;;6.55;100.00
29433;BME280;16405;53.964;13.448;2022-11-04T02:01:02;100023.81;;;6.59;100.00
29433;BME280;16405;53.964;13.448;2022-11-04T02:03:52;100009.81;;;6.60;100.00
29433;BME280;16405;53.964;13.448;2022-11-04T02:06:21;99997.06;;;6.52;100.00
29433;BME280;16405;53.964;13.448;2022-11-04T02:08:48;99996.09;;;6.55;100.00
29433;BME280;16405;53.964;13.448;2022-11-04T02:11:14;100000.38;;;6.56;100.00
29433;BME280;16405;53.964;13.448;2022-11-04T02:14:07;99982.06;;;6.56;100.00
29433;BME280;16405;53.964;13.448;2022-11-04T02:16:48;99989.03;;;6.57;100.00
29433;BME280;16405;53.964;13.448;2022-11-04T02:19:51;99981.28;;;6.54;100.00
29433;BME280;16405;53.964;13.448;2022-11-04T02:25:26;99990.19;;;6.50;100.00
29433;BME280;16405;53.964;13.448;2022-11-04T02:40:49;99963.22;;;6.27;100.00
29433;BME280;16405;53.964;13.448;2022-11-04T02:47:14;99968.59;;;6.24;100.00
29433;BME280;16405;53.964;13.448;2022-11-04T02:50:08;99968.69;;;6.21;100.00
29433;BME280;16405;53.964;13.448;2022-11-04T02:52:54;99957.50;;;6.18;100.00
29433;BME280;16405;53.964;13.448;2022-11-04T02:55:43;99962.03;;;6.14;100.00
29433;BME280;16405;53.964;13.448;2022-11-04T03:01:20;99962.41;;;6.05;100.00
29433;BME280;16405;53.964;13.448;2022-11-04T03:04:02;99972.78;;;6.06;100.00
29433;BME280;16405;53.964;13.448;2022-11-04T03:06:42;99967.75;;;6.02;100.00
29433;BME280;16405;53.964;13.448;2022-11-04T03:09:16;99983.59;;;5.97;100.00
29433;BME280;16405;53.964;13.448;2022-11-04T03:11:46;99987.97;;;5.97;100.00
29433;BME280;16405;53.964;13.448;2022-11-04T03:14:21;99988.06;;;5.93;100.00
29433;BME280;16405;53.964;13.448;2022-11-04T03:16:53;99975.97;;;5.91;100.00
29433;BME280;16405;53.964;13.448;2022-11-04T03:19:53;99982.81;;;5.95;100.00
29433;BME280;16405;53.964;13.448;2022-11-04T03:22:29;99985.53;;;5.92;100.00
29433;BME280;16405;53.964;13.448;2022-11-04T03:25:06;99978.75;;;5.86;100.00
29433;BME280;16405;53.964;13.448;2022-11-04T03:28:16;99976.94;;;5.88;100.00
29433;BME280;16405;53.964;13.448;2022-11-04T03:30:43;99971.06;;;5.83;100.00
29433;BME280;16405;53.964;13.448;2022-11-04T03:35:59;99979.00;;;5.80;100.00
29433;BME280;16405;53.964;13.448;2022-11-04T03:38:36;99968.59;;;5.79;100.00
29433;BME280;16405;53.964;13.448;2022-11-04T03:41:11;99961.63;;;5.79;100.00
29433;BME280;16405;53.964;13.448;2022-11-04T03:43:41;99971.13;;;5.82;100.00
29433;BME280;16405;53.964;13.448;2022-11-04T03:46:07;99965.84;;;5.83;100.00
29433;BME280;16405;53.964;13.448;2022-11-04T03:48:34;99962.66;;;5.75;100.00
29433;BME280;16405;53.964;13.448;2022-11-04T03:51:07;99960.16;;;5.72;100.00
29433;BME280;16405;53.964;13.448;2022-11-04T03:53:33;99958.16;;;5.79;100.00
29433;BME280;16405;53.964;13.448;2022-11-04T03:56:41;99954.69;;;5.78;100.00
29433;BME280;16405;53.964;13.448;2022-11-04T04:02:21;99968.38;;;5.85;100.00
29433;BME280;16405;53.964;13.448;2022-11-04T04:05:13;99955.63;;;5.77;100.00
29433;BME280;16405;53.964;13.448;2022-11-04T04:07:46;99955.50;;;5.80;100.00
29433;BME280;16405;53.964;13.448;2022-11-04T04:10:51;99962.47;;;5.80;100.00
29433;BME280;16405;53.964;13.448;2022-11-04T04:13:31;99976.56;;;5.75;100.00
29433;BME280;16405;53.964;13.448;2022-11-04T04:16:12;99975.81;;;5.72;100.00
29433;BME280;16405;53.964;13.448;2022-11-04T04:18:53;99977.66;;;5.70;100.00
29433;BME280;16405;53.964;13.448;2022-11-04T04:21:25;99971.56;;;5.69;100.00
29433;BME280;16405;53.964;13.448;2022-11-04T04:24:04;99966.41;;;5.68;100.00
29433;BME280;16405;53.964;13.448;2022-11-04T04:26:54;99970.91;;;5.64;100.00
29433;BME280;16405;53.964;13.448;2022-11-04T04:29:50;99967.31;;;5.67;100.00
29433;BME280;16405;53.964;13.448;2022-11-04T04:32:21;99968.16;;;5.67;100.00
29433;BME280;16405;53.964;13.448;2022-11-04T04:34:52;99965.38;;;5.72;100.00
29433;BME280;16405;53.964;13.448;2022-11-04T04:37:39;99954.22;;;5.68;100.00
29433;BME280;16405;53.964;13.448;2022-11-04T04:40:19;99968.00;;;5.72;100.00
29433;BME280;16405;53.964;13.448;2022-11-04T04:43:14;99954.09;;;5.71;100.00
29433;BME280;16405;53.964;13.448;2022-11-04T04:46:07;99958.41;;;5.72;100.00
29433;BME280;16405;53.964;13.448;2022-11-04T04:48:33;99949.72;;;5.72;100.00
29433;BME280;16405;53.964;13.448;2022-11-04T04:50:59;99954.94;;;5.72;100.00
29433;BME280;16405;53.964;13.448;2022-11-04T04:53:31;99951.97;;;5.81;100.00
29433;BME280;16405;53.964;13.448;2022-11-04T04:55:57;99950.22;;;5.82;100.00
29433;BME280;16405;53.964;13.448;2022-11-04T04:58:22;99946.47;;;5.87;100.00
29433;BME280;16405;53.964;13.448;2022-11-04T05:00:51;99946.22;;;5.95;100.00
29433;BME280;16405;53.964;13.448;2022-11-04T05:03:16;99948.41;;;6.06;100.00
29433;BME280;16405;53.964;13.448;2022-11-04T05:05:50;99960.31;;;6.13;100.00
29433;BME280;16405;53.964;13.448;2022-11-04T05:08:16;99967.13;;;6.17;100.00
29433;BME280;16405;53.964;13.448;2022-11-04T05:10:41;99955.56;;;6.23;100.00
29433;BME280;16405;53.964;13.448;2022-11-04T05:13:08;99964.00;;;6.29;100.00
29433;BME280;16405;53.964;13.448;2022-11-04T05:15:56;99974.13;;;6.37;100.00
29433;BME280;16405;53.964;13.448;2022-11-04T05:18:22;99974.94;;;6.39;100.00
29433;BME280;16405;53.964;13.448;2022-11-04T05:20:48;99977.44;;;6.42;100.00
29433;BME280;16405;53.964;13.448;2022-11-04T05:23:14;99977.38;;;6.44;100.00
29433;BME280;16405;53.964;13.448;2022-11-04T05:25:40;99976.31;;;6.48;100.00
29433;BME280;16405;53.964;13.448;2022-11-04T05:28:15;99975.94;;;6.57;100.00
29433;BME280;16405;53.964;13.448;2022-11-04T05:31:12;99973.38;;;6.55;100.00
29433;BME280;16405;53.964;13.448;2022-11-04T05:33:41;99972.28;;;6.61;100.00
29433;BME280;16405;53.964;13.448;2022-11-04T05:36:16;99958.47;;;6.57;100.00
29433;BME280;16405;53.964;13.448;2022-11-04T05:38:43;99956.84;;;6.55;100.00
29433;BME280;16405;53.964;13.448;2022-11-04T05:41:15;99943.81;;;6.53;100.00
29433;BME280;16405;53.964;13.448;2022-11-04T05:43:57;99945.47;;;6.56;100.00
29433;BME280;16405;53.964;13.448;2022-11-04T05:46:27;99950.00;;;6.52;100.00
29433;BME280;16405;53.964;13.448;2022-11-04T05:48:53;99951.63;;;6.55;100.00
29433;BME280;16405;53.964;13.448;2022-11-04T05:51:31;99954.88;;;6.60;100.00
29433;BME280;16405;53.964;13.448;2022-11-04T05:53:57;99952.53;;;6.54;100.00
29433;BME280;16405;53.964;13.448;2022-11-04T05:56:31;99961.41;;;6.50;100.00
29433;BME280;16405;53.964;13.448;2022-11-04T05:58:59;99960.50;;;6.51;100.00
29433;BME280;16405;53.964;13.448;2022-11-04T06:01:39;99963.13;;;6.51;100.00
29433;BME280;16405;53.964;13.448;2022-11-04T06:04:16;99968.22;;;6.54;100.00
29433;BME280;16405;53.964;13.448;2022-11-04T06:06:43;99971.75;;;6.53;100.00
29433;BME280;16405;53.964;13.448;2022-11-04T06:09:12;99972.00;;;6.47;100.00
29433;BME280;16405;53.964;13.448;2022-11-04T06:11:41;99971.88;;;6.50;100.00
29433;BME280;16405;53.964;13.448;2022-11-04T06:14:25;99985.69;;;6.53;100.00
29433;BME280;16405;53.964;13.448;2022-11-04T06:16:53;99987.50;;;6.51;100.00
29433;BME280;16405;53.964;13.448;2022-11-04T06:19:26;99992.78;;;6.50;100.00
29433;BME280;16405;53.964;13.448;2022-11-04T06:21:53;99993.47;;;6.55;100.00
29433;BME280;16405;53.964;13.448;2022-11-04T06:24:19;100001.19;;;6.58;100.00
29433;BME280;16405;53.964;13.448;2022-11-04T06:26:45;100003.00;;;6.56;100.00
29433;BME280;16405;53.964;13.448;2022-11-04T06:29:15;100002.03;;;6.58;100.00
29433;BME280;16405;53.964;13.448;2022-11-04T06:31:43;100012.44;;;6.60;100.00
29433;BME280;16405;53.964;13.448;2022-11-04T06:34:10;100022.00;;;6.61;100.00
29433;BME280;16405;53.964;13.448;2022-11-04T06:36:35;100029.91;;;6.60;100.00
29433;BME280;16405;53.964;13.448;2022-11-04T06:39:11;100033.53;;;6.55;100.00
29433;BME280;16405;53.964;13.448;2022-11-04T06:41:37;100041.25;;;6.58;100.00
29433;BME280;16405;53.964;13.448;2022-11-04T06:44:03;100041.19;;;6.60;100.00
29433;BME280;16405;53.964;13.448;2022-11-04T06:46:39;100055.72;;;6.67;100.00
29433;BME280;16405;53.964;13.448;2022-11-04T06:49:13;100057.19;;;6.74;100.00
29433;BME280;16405;53.964;13.448;2022-11-04T06:51:42;100062.47;;;6.73;100.00
29433;BME280;16405;53.964;13.448;2022-11-04T06:54:09;100057.19;;;6.74;100.00
29433;BME280;16405;53.964;13.448;2022-11-04T06:56:35;100058.88;;;6.75;100.00
29433;BME280;16405;53.964;13.448;2022-11-04T06:59:01;100054.44;;;6.77;100.00
29433;BME280;16405;53.964;13.448;2022-11-04T07:01:35;100064.00;;;6.78;100.00
29433;BME280;16405;53.964;13.448;2022-11-04T07:04:03;100071.91;;;6.77;100.00
29433;BME280;16405;53.964;13.448;2022-11-04T07:06:36;100074.72;;;6.72;100.00
29433;BME280;16405;53.964;13.448;2022-11-04T07:09:02;100069.34;;;6.75;100.00
29433;BME280;16405;53.964;13.448;2022-11-04T07:11:31;100066.44;;;6.83;100.00
29433;BME280;16405;53.964;13.448;2022-11-04T07:13:57;100071.66;;;6.83;100.00
29433;BME280;16405;53.964;13.448;2022-11-04T07:16:33;100071.66;;;6.83;100.00
29433;BME280;16405;53.964;13.448;2022-11-04T07:18:59;100077.94;;;6.79;100.00
29433;BME280;16405;53.964;13.448;2022-11-04T07:21:25;100084.00;;;6.80;100.00
29433;BME280;16405;53.964;13.448;2022-11-04T07:23:56;100079.69;;;6.78;100.00
29433;BME280;16405;53.964;13.448;2022-11-04T07:26:22;100085.59;;;6.84;100.00
29433;BME280;16405;53.964;13.448;2022-11-04T07:28:48;100081.34;;;6.81;100.00
29433;BME280;16405;53.964;13.448;2022-11-04T07:31:14;100074.28;;;6.83;100.00
29433;BME280;16405;53.964;13.448;2022-11-04T07:33:43;100069.75;;;6.87;100.00
29433;BME280;16405;53.964;13.448;2022-11-04T07:36:17;100066.09;;;6.91;100.00
29433;BME280;16405;53.964;13.448;2022-11-04T07:38:43;100064.16;;;6.96;100.00
29433;BME280;16405;53.964;13.448;2022-11-04T07:41:17;100052.44;;;7.05;100.00
29433;BME280;16405;53.964;13.448;2022-11-04T07:43:50;100050.47;;;7.10;100.00
29433;BME280;16405;53.964;13.448;2022-11-04T07:46:23;100050.34;;;7.13;100.00
29433;BME280;16405;53.964;13.448;2022-11-04T07:48:51;100054.59;;;7.15;100.00
29433;BME280;16405;53.964;13.448;2022-11-04T07:51:28;100051.72;;;7.22;100.00
29433;BME280;16405;53.964;13.448;2022-11-04T07:53:57;100067.13;;;7.28;100.00
29433;BME280;16405;53.964;13.448;2022-11-04T07:56:28;100065.97;;;7.35;100.00
29433;BME280;16405;53.964;13.448;2022-11-04T07:58:54;100070.66;;;7.47;100.00
29433;BME280;16405;53.964;13.448;2022-11-04T08:01:22;100073.66;;;7.58;100.00
29433;BME280;16405;53.964;13.448;2022-11-04T08:03:49;100079.69;;;7.60;100.00
29433;BME280;16405;53.964;13.448;2022-11-04T08:06:19;100076.56;;;7.52;100.00
29433;BME280;16405;53.964;13.448;2022-11-04T08:08:45;100066.50;;;7.43;100.00
29433;BME280;16405;53.964;13.448;2022-11-04T08:11:19;100064.50;;;7.48;100.00
29433;BME280;16405;53.964;13.448;2022-11-04T08:13:49;100073.00;;;7.53;100.00
29433;BME280;16405;53.964;13.448;2022-11-04T08:16:18;100072.56;;;7.44;100.00
29433;BME280;16405;53.964;13.448;2022-11-04T08:18:47;100069.91;;;7.45;100.00
29433;BME280;16405;53.964;13.448;2022-11-04T08:21:17;100074.34;;;7.43;100.00
29433;BME280;16405;53.964;13.448;2022-11-04T08:23:43;100071.56;;;7.46;100.00
29433;BME280;16405;53.964;13.448;2022-11-04T08:26:14;100080.84;;;7.53;100.00
29433;BME280;16405;53.964;13.448;2022-11-04T08:28:49;100078.53;;;7.66;100.00
29433;BME280;16405;53.964;13.448;2022-11-04T08:31:30;100075.38;;;7.78;100.00
29433;BME280;16405;53.964;13.448;2022-11-04T08:33:56;100066.97;;;7.91;100.00
29433;BME280;16405;53.964;13.448;2022-11-04T08:36:34;100063.97;;;7.98;100.00
29433;BME280;16405;53.964;13.448;2022-11-04T08:39:10;100058.44;;;8.05;100.00
29433;BME280;16405;53.964;13.448;2022-11-04T08:41:36;100066.47;;;8.01;100.00
29433;BME280;16405;53.964;13.448;2022-11-04T08:44:04;100063.69;;;8.05;100.00
29433;BME280;16405;53.964;13.448;2022-11-04T08:46:55;100071.34;;;8.09;100.00
29433;BME280;16405;53.964;13.448;2022-11-04T08:49:23;100070.78;;;8.02;100.00
29433;BME280;16405;53.964;13.448;2022-11-04T08:51:49;100075.97;;;8.04;100.00
29433;BME280;16405;53.964;13.448;2022-11-04T08:54:24;100083.44;;;8.12;100.00
29433;BME280;16405;53.964;13.448;2022-11-04T08:56:50;100085.66;;;8.21;100.00
29433;BME280;16405;53.964;13.448;2022-11-04T08:59:16;100082.88;;;8.24;100.00
29433;BME280;16405;53.964;13.448;2022-11-04T09:01:45;100088.00;;;8.27;100.00
29433;BME280;16405;53.964;13.448;2022-11-04T09:04:13;100082.03;;;8.24;100.00
29433;BME280;16405;53.964;13.448;2022-11-04T09:06:42;100083.94;;;8.20;100.00
29433;BME280;16405;53.964;13.448;2022-11-04T09:09:17;100078.75;;;8.18;100.00
29433;BME280;16405;53.964;13.448;2022-11-04T09:11:49;100078.84;;;8.17;100.00
29433;BME280;16405;53.964;13.448;2022-11-04T09:14:20;100092.75;;;8.19;100.00
29433;BME280;16405;53.964;13.448;2022-11-04T09:16:48;100090.03;;;8.20;100.00
29433;BME280;16405;53.964;13.448;2022-11-04T09:19:20;100097.56;;;8.28;100.00
29433;BME280;16405;53.964;13.448;2022-11-04T09:21:55;100097.91;;;8.39;100.00
29433;BME280;16405;53.964;13.448;2022-11-04T09:24:47;100095.78;;;8.48;100.00
29433;BME280;16405;53.964;13.448;2022-11-04T09:27:17;100097.13;;;8.56;100.00
29433;BME280;16405;53.964;13.448;2022-11-04T09:29:48;100096.97;;;8.59;100.00
29433;BME280;16405;53.964;13.448;2022-11-04T09:32:17;100103.69;;;8.65;100.00
29433;BME280;16405;53.964;13.448;2022-11-04T09:34:55;100103.25;;;8.74;100.00
29433;BME280;16405;53.964;13.448;2022-11-04T09:37:47;100104.78;;;8.78;100.00
29433;BME280;16405;53.964;13.448;2022-11-04T09:40:22;100113.38;;;8.82;100.00
29433;BME280;16405;53.964;13.448;2022-11-04T09:46:19;100114.78;;;8.89;100.00
29433;BME280;16405;53.964;13.448;2022-11-04T09:49:00;100105.69;;;8.96;100.00
29433;BME280;16405;53.964;13.448;2022-11-04T09:51:27;100108.22;;;8.98;100.00
29433;BME280;16405;53.964;13.448;2022-11-04T09:54:14;100114.16;;;9.01;100.00
29433;BME280;16405;53.964;13.448;2022-11-04T09:56:50;100117.94;;;9.13;100.00
29433;BME280;16405;53.964;13.448;2022-11-04T09:59:31;100114.72;;;9.26;100.00
29433;BME280;16405;53.964;13.448;2022-11-04T10:02:39;100114.34;;;9.33;100.00
29433;BME280;16405;53.964;13.448;2022-11-04T10:14:13;100112.75;;;9.64;100.00
29433;BME280;16405;53.964;13.448;2022-11-04T10:30:01;100091.06;;;10.87;100.00
29433;BME280;16405;53.964;13.448;2022-11-04T10:35:53;100088.34;;;11.34;100.00
29433;BME280;16405;53.964;13.448;2022-11-04T10:38:50;100088.00;;;11.54;100.00
29433;BME280;16405;53.964;13.448;2022-11-04T10:41:41;100082.91;;;11.65;100.00
29433;BME280;16405;53.964;13.448;2022-11-04T10:44:32;100077.06;;;11.60;100.00
29433;BME280;16405;53.964;13.448;2022-11-04T10:53:38;100061.63;;;11.68;100.00
29433;BME280;16405;53.964;13.448;2022-11-04T11:10:58;100071.22;;;11.98;100.00
29433;BME280;16405;53.964;13.448;2022-11-04T11:20:22;100088.47;;;11.89;100.00
29433;BME280;16405;53.964;13.448;2022-11-04T11:23:47;100095.06;;;11.82;100.00
29433;BME280;16405;53.964;13.448;2022-11-04T11:26:39;100095.53;;;11.75;100.00
29433;BME280;16405;53.964;13.448;2022-11-04T11:32:54;100118.78;;;11.68;100.00
29433;BME280;16405;53.964;13.448;2022-11-04T11:42:25;100122.63;;;11.48;100.00
29433;BME280;16405;53.964;13.448;2022-11-04T11:45:04;100112.94;;;11.48;100.00
29433;BME280;16405;53.964;13.448;2022-11-04T11:47:45;100129.09;;;11.42;100.00
29433;BME280;16405;53.964;13.448;2022-11-04T11:50:25;100128.47;;;11.39;100.00
29433;BME280;16405;53.964;13.448;2022-11-04T11:53:19;100143.78;;;11.32;100.00
29433;BME280;16405;53.964;13.448;2022-11-04T11:56:14;100147.56;;;11.28;100.00
29433;BME280;16405;53.964;13.448;2022-11-04T11:59:12;100142.56;;;11.23;100.00
29433;BME280;16405;53.964;13.448;2022-11-04T12:04:51;100151.66;;;11.18;100.00
29433;BME280;16405;53.964;13.448;2022-11-04T12:07:42;100161.63;;;11.13;100.00
29433;BME280;16405;53.964;13.448;2022-11-04T12:10:26;100160.03;;;11.10;100.00
29433;BME280;16405;53.964;13.448;2022-11-04T12:13:06;100159.25;;;11.08;100.00
29433;BME280;16405;53.964;13.448;2022-11-04T12:21:16;100185.69;;;11.06;100.00
29433;BME280;16405;53.964;13.448;2022-11-04T12:30:05;100201.84;;;11.00;100.00
29433;BME280;16405;53.964;13.448;2022-11-04T12:35:31;100202.88;;;10.98;100.00
29433;BME280;16405;53.964;13.448;2022-11-04T12:38:41;100202.88;;;10.98;100.00
29433;BME280;16405;53.964;13.448;2022-11-04T12:41:35;100202.88;;;10.98;100.00
29433;BME280;16405;53.964;13.448;2022-11-04T12:47:31;100200.81;;;11.03;100.00
29433;BME280;16405;53.964;13.448;2022-11-04T12:56:10;100209.31;;;11.08;100.00
29433;BME280;16405;53.964;13.448;2022-11-04T13:01:47;100206.69;;;11.08;100.00
29433;BME280;16405;53.964;13.448;2022-11-04T13:04:22;100200.47;;;11.09;100.00
29433;BME280;16405;53.964;13.448;2022-11-04T13:12:48;100193.63;;;11.21;100.00
29433;BME280;16405;53.964;13.448;2022-11-04T13:18:40;100194.31;;;11.24;100.00
29433;BME280;16405;53.964;13.448;2022-11-04T13:21:49;100203.16;;;11.23;100.00
29433;BME280;16405;53.964;13.448;2022-11-04T13:28:29;100222.22;;;11.13;100.00
29433;BME280;16405;53.964;13.448;2022-11-04T13:31:31;100218.91;;;11.09;100.00
29433;BME280;16405;53.964;13.448;2022-11-04T13:38:40;100226.50;;;10.99;100.00
29433;BME280;16405;53.964;13.448;2022-11-04T13:45:19;100223.19;;;10.96;100.00
29433;BME280;16405;53.964;13.448;2022-11-04T13:48:01;100216.94;;;10.97;100.00
29433;BME280;16405;53.964;13.448;2022-11-04T13:50:41;100215.84;;;11.01;100.00
29433;BME280;16405;53.964;13.448;2022-11-04T13:53:09;100213.22;;;11.01;100.00
29433;BME280;16405;53.964;13.448;2022-11-04T13:55:59;100213.31;;;10.99;100.00
29433;BME280;16405;53.964;13.448;2022-11-04T13:58:58;100220.00;;;11.05;100.00
29433;BME280;16405;53.964;13.448;2022-11-04T14:04:50;100229.22;;;10.98;100.00
29433;BME280;16405;53.964;13.448;2022-11-04T14:08:21;100232.88;;;10.95;100.00
29433;BME280;16405;53.964;13.448;2022-11-04T14:11:11;100236.69;;;10.90;100.00
29433;BME280;16405;53.964;13.448;2022-11-04T14:16:49;100243.06;;;10.85;100.00
29433;BME280;16405;53.964;13.448;2022-11-04T14:29:21;100265.16;;;10.67;100.00
29433;BME280;16405;53.964;13.448;2022-11-04T14:46:30;100261.22;;;10.74;100.00
29433;BME280;16405;53.964;13.448;2022-11-04T14:50:13;100261.06;;;10.77;100.00
29433;BME280;16405;53.964;13.448;2022-11-04T14:56:49;100266.06;;;10.82;100.00
29433;BME280;16405;53.964;13.448;2022-11-04T14:59:29;100269.66;;;10.81;100.00
29433;BME280;16405;53.964;13.448;2022-11-04T15:02:29;100280.00;;;10.84;100.00
29433;BME280;16405;53.964;13.448;2022-11-04T15:05:26;100284.28;;;10.86;100.00
29433;BME280;16405;53.964;13.448;2022-11-04T15:11:12;100271.44;;;10.80;100.00
29433;BME280;16405;53.964;13.448;2022-11-04T15:20:00;100277.94;;;10.73;100.00
29433;BME280;16405;53.964;13.448;2022-11-04T15:22:52;100285.09;;;10.71;100.00
29433;BME280;16405;53.964;13.448;2022-11-04T15:25:52;100281.09;;;10.64;100.00
29433;BME280;16405;53.964;13.448;2022-11-04T15:28:47;100283.78;;;10.62;100.00
29433;BME280;16405;53.964;13.448;2022-11-04T15:31:30;100288.28;;;10.60;100.00
29433;BME280;16405;53.964;13.448;2022-11-04T15:34:11;100285.75;;;10.59;100.00
29433;BME280;16405;53.964;13.448;2022-11-04T15:44:02;100303.03;;;10.47;100.00
29433;BME280;16405;53.964;13.448;2022-11-04T15:46:40;100312.97;;;10.42;100.00
29433;BME280;16405;53.964;13.448;2022-11-04T15:50:01;100310.13;;;10.29;100.00
29433;BME280;16405;53.964;13.448;2022-11-04T15:53:13;100313.59;;;10.30;100.00
29433;BME280;16405;53.964;13.448;2022-11-04T15:55:50;100314.06;;;10.20;100.00
29433;BME280;16405;53.964;13.448;2022-11-04T16:09:28;100330.09;;;10.16;100.00
29433;BME280;16405;53.964;13.448;2022-11-04T16:16:25;100329.31;;;10.14;100.00
29433;BME280;16405;53.964;13.448;2022-11-04T16:18:59;100339.38;;;10.05;100.00
29433;BME280;16405;53.964;13.448;2022-11-04T16:21:40;100332.31;;;10.06;100.00
29433;BME280;16405;53.964;13.448;2022-11-04T16:24:39;100342.25;;;10.01;100.00
29433;BME280;16405;53.964;13.448;2022-11-04T16:27:21;100343.38;;;9.95;100.00
29433;BME280;16405;53.964;13.448;2022-11-04T16:33:28;100348.03;;;9.90;100.00
29433;BME280;16405;53.964;13.448;2022-11-04T16:36:40;100349.81;;;9.90;100.00
29433;BME280;16405;53.964;13.448;2022-11-04T16:39:02;100349.88;;;9.88;100.00
29433;BME280;16405;53.964;13.448;2022-11-04T16:41:40;100346.41;;;9.88;100.00
29433;BME280;16405;53.964;13.448;2022-11-04T16:47:19;100357.06;;;9.84;100.00
29433;BME280;16405;53.964;13.448;2022-11-04T16:49:59;100347.56;;;9.82;100.00
29433;BME280;16405;53.964;13.448;2022-11-04T16:52:38;100351.19;;;9.79;100.00
29433;BME280;16405;53.964;13.448;2022-11-04T16:58:29;100348.78;;;9.75;100.00
29433;BME280;16405;53.964;13.448;2022-11-04T17:01:11;100347.25;;;9.71;100.00
29433;BME280;16405;53.964;13.448;2022-11-04T17:03:50;100352.50;;;9.71;100.00
29433;BME280;16405;53.964;13.448;2022-11-04T17:06:16;100346.47;;;9.69;100.00
29433;BME280;16405;53.964;13.448;2022-11-04T17:11:50;100339.50;;;9.68;100.00
29433;BME280;16405;53.964;13.448;2022-11-04T17:14:27;100344.00;;;9.65;100.00
29433;BME280;16405;53.964;13.448;2022-11-04T17:17:13;100338.81;;;9.64;100.00
29433;BME280;16405;53.964;13.448;2022-11-04T17:19:49;100344.91;;;9.64;100.00
29433;BME280;16405;53.964;13.448;2022-11-04T17:22:28;100351.88;;;9.65;100.00
29433;BME280;16405;53.964;13.448;2022-11-04T17:28:09;100355.47;;;9.63;100.00